首页
METAR-TAF:

METAR-TAF

机场 :

克赖斯特彻奇国际机场

基督城, 新西兰

纬度: 43-29S, 经度: 172-33E, 海拔: 38米

当前天气观测

该预报发布于30分钟前的08:30 UTC
风速3节,风向西转西北
温度 1°C
湿度 100%
气压 1032 hPa
能見度: 9000

METAR: NZCH 260830Z AUTO 29003KT 9000 BKN016/// 01/01 Q1032 TEMPO 9999 NSW

时间: 21:00 (09:00 UTC)

预报

该预报发布于3小时和50分钟前的05:10 UTC
预报有效从26日的 06点(UTC)到 27日的 06点(UTC)
风速10节,风向东转东北
能见度10公里或以上
散云层高于1200英尺
成为
从 26日的 06点(UTC)到 26日的 08点(UTC)
风速2节,风向多变
短暂存在
从 26日的 08点(UTC)到 26日的 14点(UTC)
能見度: 2000
轻雾
成为
从 26日的 22点(UTC)到 27日的 00点(UTC)
风速10节,风向东北

TAF: NZCH 260510Z 2606/2706 06010KT 9999 SCT012 BECMG 2606/2608 VRB02KT TEMPO 2608/2614 2000 BR BECMG 2622/2700 04010KT

超过4000个机场的气象观测和天气预报(METAR&TAF报告)。

可查询的气象台以黄色和红色小点在地图上表示。

将鼠标移到小点上方,可查看气象台名称。

然后点击查看天气观测和预报。

如需切换地图:点击带黑十字的绿色按钮放大地图;点击带横线的绿色按钮缩小地图;或者点击绿色箭头查看邻近地区的地图。


METAR-TAF: